Time;durP1;ratioP1;P1;durP2;ratioP2;P2;SDS_P1;SDS_P2;PMS_P1;PMS_P2;Temp;Humidity;BMP_temperature;BMP_pressure;BME280_temperature;BME280_humidity;BME280_pressure;Samples;Min_cycle;Max_cycle;Signal;HPM_P1;HPM_P2
2023/11/06 00:02:28;;;;;;;;;;;;;;;8.68;90.16;98324.88;106296;1258;61380;-84
2023/11/06 00:04:57;;;;;;;;;;;;;;;8.69;90.12;98332.92;106191;1257;125100;-83
2023/11/06 00:07:24;;;;;;;;;;;;;;;8.71;90.12;98330.11;106227;1265;65529;-83
2023/11/06 00:09:51;;;;;;;;;;;;;;;8.70;90.16;98328.72;106244;1258;71419;-83
2023/11/06 00:12:17;;;;;;;;;;;;;;;8.70;90.19;98330.45;106194;1265;124951;-83
2023/11/06 00:14:45;;;;;;;;;;;;;;;8.70;90.23;98332.74;106207;1264;61168;-83
2023/11/06 00:17:11;;;;;;;;;;;;;;;8.73;90.29;98333.60;106066;1263;124634;-83
2023/11/06 00:19:38;;;;;;;;;;;;;;;8.74;90.32;98333.58;106191;1258;66294;-83
2023/11/06 00:22:06;;;;;;;;;;;;;;;8.76;90.38;98333.75;106183;1258;71859;-82
2023/11/06 00:24:32;;;;;;;;;;;;;;;8.78;90.36;98337.75;106227;1258;124744;-83
2023/11/06 00:26:59;;;;;;;;;;;;;;;8.78;90.31;98337.75;106233;1258;61364;-83
2023/11/06 00:29:28;;;;;;;;;;;;;;;8.78;90.32;98343.70;106194;1263;124763;-83
2023/11/06 00:31:54;;;;;;;;;;;;;;;8.80;90.44;98341.23;106300;1258;64698;-82
2023/11/06 00:34:21;;;;;;;;;;;;;;;8.83;90.45;98344.73;106229;1258;72697;-83
2023/11/06 00:36:48;;;;;;;;;;;;;;;8.85;90.50;98353.10;106217;1263;125478;-85
2023/11/06 00:39:15;;;;;;;;;;;;;;;8.87;90.53;98356.76;106289;1258;61318;-84
2023/11/06 00:41:42;;;;;;;;;;;;;;;8.88;90.56;98353.77;106355;1261;124825;-84
2023/11/06 00:44:08;;;;;;;;;;;;;;;8.90;90.59;98356.38;106482;1259;65057;-85
2023/11/06 00:46:35;;;;;;;;;;;;;;;8.92;90.69;98356.73;106056;1266;124958;-84
2023/11/06 00:49:01;;;;;;;;;;;;;;;8.97;90.84;98359.84;106208;1258;61292;-85
2023/11/06 00:51:28;;;;;;;;;;;;;;;9.00;90.74;98361.39;106290;1264;61250;-85
2023/11/06 00:53:55;;;;;;;;;;;;;;;9.02;90.77;98365.22;105974;1259;124872;-84
2023/11/06 00:56:21;;;;;;;;;;;;;;;9.05;90.80;98367.66;106232;1262;64874;-84
2023/11/06 00:58:48;;;;;;;;;;;;;;;9.08;90.90;98369.04;106251;1262;125691;-85
2023/11/06 01:01:15;;;;;;;;;;;;;;;9.10;90.97;98368.67;106295;1259;61314;-85
2023/11/06 01:03:41;;;;;;;;;;;;;;;9.13;91.02;98371.08;106507;1263;61241;-84
2023/11/06 01:06:11;;;;;;;;;;;;;;;9.17;91.04;98372.48;106457;1262;124059;-84
2023/11/06 01:08:38;;;;;;;;;;;;;;;9.20;91.05;98372.79;106327;1257;66252;-82
2023/11/06 01:11:05;;;;;;;;;;;;;;;9.21;91.02;98375.41;106122;1259;125013;-82
2023/11/06 01:13:32;;;;;;;;;;;;;;;9.24;91.09;98377.13;106304;1260;61372;-85
2023/11/06 01:15:59;;;;;;;;;;;;;;;9.25;91.09;98381.33;106271;1259;61301;-84
2023/11/06 01:18:26;;;;;;;;;;;;;;;9.28;91.03;98385.50;106255;1258;124908;-84
2023/11/06 01:20:53;;;;;;;;;;;;;;;9.30;91.03;98385.48;106332;1259;65142;-84
2023/11/06 01:23:20;;;;;;;;;;;;;;;9.31;90.97;98386.89;106313;1261;123727;-84
2023/11/06 01:25:47;;;;;;;;;;;;;;;9.32;91.07;98389.15;106180;1257;61487;-83
2023/11/06 01:28:13;;;;;;;;;;;;;;;9.32;90.88;98392.14;106361;1257;61413;-83
2023/11/06 01:30:40;;;;;;;;;;;;;;;9.29;90.88;98394.06;106132;1259;124784;-82
2023/11/06 01:33:07;;;;;;;;;;;;;;;9.26;90.80;98391.30;106409;1262;65100;-84
2023/11/06 01:35:33;;;;;;;;;;;;;;;9.22;90.74;98395.70;106310;1258;124759;-84
2023/11/06 01:38:01;;;;;;;;;;;;;;;9.20;90.80;98397.80;106395;1259;61180;-84
2023/11/06 01:40:30;;;;;;;;;;;;;;;9.19;90.78;98404.83;106366;1258;124852;-84
2023/11/06 01:43:02;;;;;;;;;;;;;;;9.17;90.84;98407.29;106423;1260;74629;-84
2023/11/06 01:45:29;;;;;;;;;;;;;;;9.15;90.88;98410.45;106235;1263;64729;-84
2023/11/06 01:47:56;;;;;;;;;;;;;;;9.14;90.86;98408.88;105988;1260;124724;-84
2023/11/06 01:50:23;;;;;;;;;;;;;;;9.14;90.90;98412.54;106395;1260;61182;-84
2023/11/06 01:52:49;;;;;;;;;;;;;;;9.14;90.94;98409.21;106062;1258;125653;-84
2023/11/06 01:55:16;;;;;;;;;;;;;;;9.15;91.05;98412.02;106314;1259;74536;-84
2023/11/06 01:57:42;;;;;;;;;;;;;;;9.17;91.11;98409.56;106373;1262;66365;-84
2023/11/06 02:00:10;;;;;;;;;;;;;;;9.17;91.07;98411.83;106142;1259;124903;-84
2023/11/06 02:02:37;;;;;;;;;;;;;;;9.18;91.13;98411.47;106369;1261;61224;-84
2023/11/06 02:05:04;;;;;;;;;;;;;;;9.19;91.12;98414.63;106210;1260;124988;-84
2023/11/06 02:07:30;;;;;;;;;;;;;;;9.22;91.29;98418.45;106395;1257;74740;-84
2023/11/06 02:09:58;;;;;;;;;;;;;;;9.24;91.25;98421.77;106337;1259;65327;-85
2023/11/06 02:12:25;;;;;;;;;;;;;;;9.24;91.10;98427.19;106269;1257;124860;-84
2023/11/06 02:14:52;;;;;;;;;;;;;;;9.21;90.94;98434.91;106347;1257;61249;-84
2023/11/06 02:17:18;;;;;;;;;;;;;;;9.15;90.83;98438.44;106321;1262;124845;-82
2023/11/06 02:19:45;;;;;;;;;;;;;;;9.10;90.66;98440.40;106405;1257;74684;-84
2023/11/06 02:22:13;;;;;;;;;;;;;;;9.03;90.69;98440.62;106326;1257;65094;-83
2023/11/06 02:24:39;;;;;;;;;;;;;;;8.98;90.79;98444.67;106148;1259;124966;-84
2023/11/06 02:27:08;;;;;;;;;;;;;;;8.95;90.93;98445.91;106293;1263;61195;-83
2023/11/06 02:29:35;;;;;;;;;;;;;;;8.93;91.04;98451.88;106175;1257;124972;-84
2023/11/06 02:32:02;;;;;;;;;;;;;;;8.92;91.19;98455.19;106301;1258;74849;-84
2023/11/06 02:34:29;;;;;;;;;;;;;;;8.91;91.25;98462.02;106285;1259;124865;-83
2023/11/06 02:36:55;;;;;;;;;;;;;;;8.90;91.30;98460.63;106407;1260;71587;-83
2023/11/06 02:39:22;;;;;;;;;;;;;;;8.89;91.21;98469.38;106361;1256;61688;-83
2023/11/06 02:41:49;;;;;;;;;;;;;;;8.88;91.40;98469.57;106237;1258;124693;-82
2023/11/06 02:44:16;;;;;;;;;;;;;;;8.86;91.37;98477.42;106230;1258;74703;-82
2023/11/06 02:46:43;;;;;;;;;;;;;;;8.85;91.38;98484.96;106240;1258;124865;-83
2023/11/06 02:49:09;;;;;;;;;;;;;;;8.85;91.48;98488.11;106235;1257;72784;-83
2023/11/06 02:51:36;;;;;;;;;;;;;;;8.89;91.80;98489.66;106240;1259;61348;-81
2023/11/06 02:54:03;;;;;;;;;;;;;;;8.95;92.08;98489.80;106175;1262;124625;-82
2023/11/06 02:56:34;;;;;;;;;;;;;;;9.02;92.05;98488.02;106151;1264;73093;-83
2023/11/06 02:59:02;;;;;;;;;;;;;;;9.04;91.93;98489.25;106109;1263;125035;-83
2023/11/06 03:01:29;;;;;;;;;;;;;;;9.06;91.92;98491.35;106268;1263;72857;-83
2023/11/06 03:03:56;;;;;;;;;;;;;;;9.09;91.94;98493.59;106339;1257;61471;-83
2023/11/06 03:06:25;;;;;;;;;;;;;;;9.10;91.87;98494.46;106180;1260;124790;-84
2023/11/06 03:08:51;;;;;;;;;;;;;;;9.10;91.88;98501.98;106332;1257;74786;-83
2023/11/06 03:11:18;;;;;;;;;;;;;;;9.12;91.91;98507.73;106208;1257;124694;-83
2023/11/06 03:13:44;;;;;;;;;;;;;;;9.14;92.02;98506.86;106380;1263;71404;-83
2023/11/06 03:16:11;;;;;;;;;;;;;;;9.18;92.17;98509.64;106337;1259;61238;-83
2023/11/06 03:18:38;;;;;;;;;;;;;;;9.23;92.25;98513.11;106172;1263;124742;-83
2023/11/06 03:21:05;;;;;;;;;;;;;;;9.26;92.33;98514.85;106305;1266;74647;-83
2023/11/06 03:23:33;;;;;;;;;;;;;;;9.31;92.36;98514.64;106233;1257;124657;-83
2023/11/06 03:26:00;;;;;;;;;;;;;;;9.36;92.40;98516.36;106291;1257;71759;-83
2023/11/06 03:28:27;;;;;;;;;;;;;;;9.41;92.42;98522.64;106210;1258;124787;-83
2023/11/06 03:30:53;;;;;;;;;;;;;;;9.43;92.28;98523.31;106351;1259;61241;-81
2023/11/06 03:33:20;;;;;;;;;;;;;;;9.43;92.07;98530.50;106320;1260;73373;-84
2023/11/06 03:35:46;;;;;;;;;;;;;;;9.41;91.98;98533.14;106476;1260;124592;-84
2023/11/06 03:38:13;;;;;;;;;;;;;;;9.41;91.98;98535.41;106323;1259;71402;-84
2023/11/06 03:40:40;;;;;;;;;;;;;;;9.43;92.11;98541.52;106263;1260;125290;-83
2023/11/06 03:43:06;;;;;;;;;;;;;;;9.42;91.93;98549.41;106316;1263;60183;-83
2023/11/06 03:45:33;;;;;;;;;;;;;;;9.42;91.98;98555.38;106370;1259;74659;-83
2023/11/06 03:47:59;;;;;;;;;;;;;;;9.45;91.97;98557.63;106299;1257;124596;-83
2023/11/06 03:50:26;;;;;;;;;;;;;;;9.48;92.07;98561.45;106297;1260;72844;-84
2023/11/06 03:52:53;;;;;;;;;;;;;;;9.51;91.98;98566.70;106304;1263;124992;-83
2023/11/06 03:55:19;;;;;;;;;;;;;;;9.53;91.97;98566.33;106392;1263;61378;-83
2023/11/06 03:57:46;;;;;;;;;;;;;;;9.54;92.00;98563.88;106485;1262;74693;-83
2023/11/06 04:00:13;;;;;;;;;;;;;;;9.55;91.92;98566.32;106237;1259;123703;-84
2023/11/06 04:02:39;;;;;;;;;;;;;;;9.54;91.66;98571.23;106318;1258;72508;-84
2023/11/06 04:05:06;;;;;;;;;;;;;;;9.52;91.52;98572.12;106211;1260;124895;-84
2023/11/06 04:07:34;;;;;;;;;;;;;;;9.49;91.42;98575.98;106243;1259;61263;-85
2023/11/06 04:10:00;;;;;;;;;;;;;;;9.46;91.29;98580.02;106321;1258;74733;-84
2023/11/06 04:12:27;;;;;;;;;;;;;;;9.42;91.23;98583.72;106202;1270;124998;-83
2023/11/06 04:14:55;;;;;;;;;;;;;;;9.39;91.22;98590.04;106325;1264;72702;-83
2023/11/06 04:17:21;;;;;;;;;;;;;;;9.37;91.37;98590.40;106236;1260;124544;-84
2023/11/06 04:19:48;;;;;;;;;;;;;;;9.37;91.30;98597.58;106302;1263;61280;-83
2023/11/06 04:22:14;;;;;;;;;;;;;;;9.38;91.52;98597.74;106265;1257;74703;-83
2023/11/06 04:24:41;;;;;;;;;;;;;;;9.39;91.51;98597.73;106201;1257;124730;-86
2023/11/06 04:27:08;;;;;;;;;;;;;;;9.38;91.54;98598.61;106358;1258;72734;-85
2023/11/06 04:29:36;;;;;;;;;;;;;;;9.38;91.40;98598.10;106341;1261;123667;-83
2023/11/06 04:32:03;;;;;;;;;;;;;;;9.35;91.27;98597.92;106270;1259;61289;-84
2023/11/06 04:34:29;;;;;;;;;;;;;;;9.32;91.30;98605.30;106285;1257;124954;-84
2023/11/06 04:36:56;;;;;;;;;;;;;;;9.30;91.28;98608.28;106406;1263;66275;-84
2023/11/06 04:39:22;;;;;;;;;;;;;;;9.30;91.31;98617.20;106475;1261;71130;-83
2023/11/06 04:41:49;;;;;;;;;;;;;;;9.27;91.41;98613.36;106192;1257;124887;-84
2023/11/06 04:44:16;;;;;;;;;;;;;;;9.29;91.54;98620.71;106414;1262;61230;-83
2023/11/06 04:46:42;;;;;;;;;;;;;;;9.30;91.60;98621.05;106205;1262;126399;-83
2023/11/06 04:49:09;;;;;;;;;;;;;;;9.30;91.55;98627.35;106226;1257;64964;-83
2023/11/06 04:51:36;;;;;;;;;;;;;;;9.30;91.60;98627.19;106497;1262;72415;-84
2023/11/06 04:54:03;;;;;;;;;;;;;;;9.33;91.81;98622.61;106305;1258;124552;-84
2023/11/06 04:56:29;;;;;;;;;;;;;;;9.37;91.84;98625.41;106340;1263;61318;-85
2023/11/06 04:58:56;;;;;;;;;;;;;;;9.41;91.98;98622.06;106271;1262;124806;-85
2023/11/06 05:01:22;;;;;;;;;;;;;;;9.41;91.72;98624.34;106304;1263;65023;-84
2023/11/06 05:03:49;;;;;;;;;;;;;;;9.38;91.51;98629.08;106350;1263;71148;-85
2023/11/06 05:06:15;;;;;;;;;;;;;;;9.34;91.51;98635.05;106315;1263;124813;-84
2023/11/06 05:08:42;;;;;;;;;;;;;;;9.30;91.56;98643.30;106374;1263;61433;-84
2023/11/06 05:11:09;;;;;;;;;;;;;;;9.29;91.56;98640.49;106273;1258;125768;-84
2023/11/06 05:13:35;;;;;;;;;;;;;;;9.25;91.41;98647.16;106351;1262;65349;-84
2023/11/06 05:16:04;;;;;;;;;;;;;;;9.20;91.37;98651.55;106466;1261;73721;-85
2023/11/06 05:18:30;;;;;;;;;;;;;;;9.13;91.20;98652.79;106310;1257;124595;-84
2023/11/06 05:20:57;;;;;;;;;;;;;;;9.08;91.38;98659.46;106350;1257;62011;-85
2023/11/06 05:23:23;;;;;;;;;;;;;;;9.05;91.41;98663.33;106340;1262;124589;-84
2023/11/06 05:25:51;;;;;;;;;;;;;;;9.04;91.62;98671.54;106478;1257;64842;-85
2023/11/06 05:28:17;;;;;;;;;;;;;;;9.02;91.61;98672.94;106822;1257;71560;-85
2023/11/06 05:30:44;;;;;;;;;;;;;;;9.02;91.55;98677.32;106619;1258;124547;-87
2023/11/06 05:33:10;;;;;;;;;;;;;;;9.02;91.77;98683.45;106595;1260;61218;-84
2023/11/06 05:35:39;;;;;;;;;;;;;;;9.03;91.98;98685.72;106285;1261;124860;-86
2023/11/06 05:38:06;;;;;;;;;;;;;;;9.06;92.03;98690.44;106413;1258;67200;-83
2023/11/06 05:40:33;;;;;;;;;;;;;;;9.06;92.01;98697.59;106124;1263;125255;-81
2023/11/06 05:42:59;;;;;;;;;;;;;;;9.08;92.05;98701.80;106394;1258;61388;-88
2023/11/06 05:45:26;;;;;;;;;;;;;;;9.09;92.05;98709.32;106332;1261;61423;-84
2023/11/06 05:47:52;;;;;;;;;;;;;;;9.11;92.02;98712.46;106221;1257;124774;-87
2023/11/06 05:50:19;;;;;;;;;;;;;;;9.10;92.04;98712.98;106209;1264;64782;-87
2023/11/06 05:52:46;;;;;;;;;;;;;;;9.11;92.20;98714.55;106308;1257;124923;-86
2023/11/06 05:55:13;;;;;;;;;;;;;;;9.16;92.35;98721.20;106439;1257;61348;-86
2023/11/06 05:57:39;;;;;;;;;;;;;;;9.21;92.47;98721.54;106280;1258;61226;-86
2023/11/06 06:00:06;;;;;;;;;;;;;;;9.27;92.48;98725.38;106175;1257;124748;-86
2023/11/06 06:02:33;;;;;;;;;;;;;;;9.32;92.67;98735.35;106354;1257;65089;-85
2023/11/06 06:05:00;;;;;;;;;;;;;;;9.37;92.57;98737.79;106165;1262;124025;-85
2023/11/06 06:07:27;;;;;;;;;;;;;;;9.42;92.46;98745.66;106376;1261;61325;-85
2023/11/06 06:09:53;;;;;;;;;;;;;;;9.47;92.56;98746.87;106474;1264;61330;-85
2023/11/06 06:12:20;;;;;;;;;;;;;;;9.52;92.54;98755.43;106704;1258;123503;-86
2023/11/06 06:14:46;;;;;;;;;;;;;;;9.57;92.46;98756.64;106610;1259;65087;-84
2023/11/06 06:17:13;;;;;;;;;;;;;;;9.61;92.56;98757.69;106639;1263;125194;-86
2023/11/06 06:19:39;;;;;;;;;;;;;;;9.65;92.58;98757.49;106654;1257;61220;-83
2023/11/06 06:22:06;;;;;;;;;;;;;;;9.70;92.62;98763.78;106019;1257;61254;-83
2023/11/06 06:24:32;;;;;;;;;;;;;;;9.74;92.61;98767.26;105885;1258;125757;-83
2023/11/06 06:26:59;;;;;;;;;;;;;;;9.77;92.64;98770.58;106059;1264;64745;-84
2023/11/06 06:29:26;;;;;;;;;;;;;;;9.82;92.62;98771.80;106450;1258;125261;-84
2023/11/06 06:31:53;;;;;;;;;;;;;;;9.88;92.63;98776.15;106705;1257;61277;-85
2023/11/06 06:34:20;;;;;;;;;;;;;;;9.92;92.59;98780.33;107040;1261;59218;-84
2023/11/06 06:36:47;;;;;;;;;;;;;;;10.00;92.52;98785.05;106804;1257;124513;-83
2023/11/06 06:39:13;;;;;;;;;;;;;;;10.08;92.75;98787.45;106980;1257;66253;-84
2023/11/06 06:41:40;;;;;;;;;;;;;;;10.19;92.76;98790.04;106770;1257;124968;-83
2023/11/06 06:44:06;;;;;;;;;;;;;;;10.26;92.67;98793.49;106583;1263;61201;-84
2023/11/06 06:46:34;;;;;;;;;;;;;;;10.32;92.51;98797.53;106240;1258;125583;-77
2023/11/06 06:49:00;;;;;;;;;;;;;;;10.41;92.62;98804.32;105715;1264;74701;-77
2023/11/06 06:51:27;;;;;;;;;;;;;;;10.46;92.50;98800.79;106029;1258;67381;-76
2023/11/06 06:53:54;;;;;;;;;;;;;;;10.53;92.50;98804.95;105748;1263;125583;-77
2023/11/06 06:56:21;;;;;;;;;;;;;;;10.59;92.51;98807.02;106047;1264;61179;-77
2023/11/06 06:58:47;;;;;;;;;;;;;;;10.65;92.43;98809.44;105878;1262;125592;-78
2023/11/06 07:01:17;;;;;;;;;;;;;;;10.70;92.41;98812.04;106622;1258;74695;-78
2023/11/06 07:03:44;;;;;;;;;;;;;;;10.75;92.35;98809.90;106564;1257;66145;-77
2023/11/06 07:06:14;;;;;;;;;;;;;;;10.80;92.22;98817.23;105804;1260;125793;-77
2023/11/06 07:08:41;;;;;;;;;;;;;;;10.86;92.19;98820.70;106496;1257;61276;-77
2023/11/06 07:11:08;;;;;;;;;;;;;;;10.91;92.23;98821.55;105772;1259;126006;-77
2023/11/06 07:13:35;;;;;;;;;;;;;;;10.97;92.22;98820.27;105916;1257;75132;-77
2023/11/06 07:16:02;;;;;;;;;;;;;;;11.01;92.17;98822.35;105976;1258;65052;-78
2023/11/06 07:18:29;;;;;;;;;;;;;;;11.05;91.97;98821.95;105917;1257;125655;-85
2023/11/06 07:20:55;;;;;;;;;;;;;;;11.09;91.89;98820.70;106634;1257;61328;-83
2023/11/06 07:23:24;;;;;;;;;;;;;;;11.14;91.77;98824.89;105789;1264;125523;-83
2023/11/06 07:25:52;;;;;;;;;;;;;;;11.17;91.60;98830.30;105803;1257;75689;-76
2023/11/06 07:28:18;;;;;;;;;;;;;;;11.18;91.48;98832.73;105732;1263;66732;-79
2023/11/06 07:30:45;;;;;;;;;;;;;;;11.21;91.41;98835.88;108178;1257;125593;-78
2023/11/06 07:33:12;;;;;;;;;;;;;;;11.25;91.36;98839.88;106371;1257;59679;-78
2023/11/06 07:35:38;;;;;;;;;;;;;;;11.33;91.31;98845.09;105653;1262;125651;-79
2023/11/06 07:38:06;;;;;;;;;;;;;;;11.39;91.29;98847.83;105887;1262;72838;-77
2023/11/06 07:40:33;;;;;;;;;;;;;;;11.45;91.07;98851.30;105627;1257;125692;-76
2023/11/06 07:42:59;;;;;;;;;;;;;;;11.51;91.08;98854.40;105675;1257;71325;-76
2023/11/06 07:45:26;;;;;;;;;;;;;;;11.57;91.06;98857.34;105694;1264;61257;-76
2023/11/06 07:47:55;;;;;;;;;;;;;;;11.61;90.87;98856.59;105523;1263;125338;-78
2023/11/06 07:50:23;;;;;;;;;;;;;;;11.62;90.60;98857.30;108966;1257;75715;-76
2023/11/06 07:52:50;;;;;;;;;;;;;;;11.64;90.53;98865.34;108553;1257;124907;-77
2023/11/06 07:55:16;;;;;;;;;;;;;;;11.71;90.60;98862.98;105763;1257;72754;-77
2023/11/06 07:57:43;;;;;;;;;;;;;;;11.83;90.68;98863.05;105833;1258;61368;-77
2023/11/06 08:00:13;;;;;;;;;;;;;;;11.99;90.71;98867.66;105516;1258;125371;-77
2023/11/06 08:02:40;;;;;;;;;;;;;;;12.14;90.62;98872.07;105782;1257;74373;-77
2023/11/06 08:05:08;;;;;;;;;;;;;;;12.30;90.55;98879.44;105651;1258;126584;-77
2023/11/06 08:07:38;;;;;;;;;;;;;;;12.45;90.36;98885.23;108822;1257;71843;-78
2023/11/06 08:10:09;;;;;;;;;;;;;;;12.53;89.80;98889.70;108228;1257;59207;-77
2023/11/06 08:12:36;;;;;;;;;;;;;;;12.60;89.62;98891.56;105911;1258;126395;-77
2023/11/06 08:15:03;;;;;;;;;;;;;;;12.62;89.20;98894.52;105684;1257;73247;-84
2023/11/06 08:17:30;;;;;;;;;;;;;;;12.65;88.94;98902.40;105800;1259;123877;-84
2023/11/06 08:19:57;;;;;;;;;;;;;;;12.67;88.65;98904.66;106352;1263;71513;-84
2023/11/06 08:22:24;;;;;;;;;;;;;;;12.68;88.55;98910.98;106424;1257;61250;-84
2023/11/06 08:24:51;;;;;;;;;;;;;;;12.70;88.43;98913.42;106251;1263;61279;-84
2023/11/06 08:27:18;;;;;;;;;;;;;;;12.72;88.33;98917.98;106396;1261;74792;-85
2023/11/06 08:29:44;;;;;;;;;;;;;;;12.73;88.02;98923.07;106268;1258;125490;-85
2023/11/06 08:32:14;;;;;;;;;;;;;;;12.73;87.93;98928.50;106362;1264;71412;-84
2023/11/06 08:34:42;;;;;;;;;;;;;;;12.76;87.90;98940.61;106290;1257;124908;-83
2023/11/06 08:37:10;;;;;;;;;;;;;;;12.78;87.82;98941.64;106460;1260;61223;-84
2023/11/06 08:39:44;;;;;;;;;;;;;;;12.85;88.12;98948.07;106450;1257;73784;-83
2023/11/06 08:42:14;;;;;;;;;;;;;;;12.94;88.10;98952.52;106318;1258;124801;-83
2023/11/06 08:44:41;;;;;;;;;;;;;;;13.04;87.99;98957.67;105860;1257;71267;-84
2023/11/06 08:47:10;;;;;;;;;;;;;;;13.13;87.89;98961.78;105715;1261;125575;-83
2023/11/06 08:49:37;;;;;;;;;;;;;;;13.26;88.07;98968.30;105928;1260;60161;-84
2023/11/06 08:52:06;;;;;;;;;;;;;;;13.40;87.77;98973.58;105816;1262;74460;-84
2023/11/06 08:54:34;;;;;;;;;;;;;;;13.51;87.59;98982.39;105835;1257;125001;-84
2023/11/06 08:57:00;;;;;;;;;;;;;;;13.59;87.33;98988.09;105872;1256;72755;-84
2023/11/06 08:59:27;;;;;;;;;;;;;;;13.63;87.10;98989.95;105580;1258;125239;-84
2023/11/06 09:01:54;;;;;;;;;;;;;;;13.61;86.73;98997.75;105805;1258;61283;-84
2023/11/06 09:04:20;;;;;;;;;;;;;;;13.55;86.25;98998.38;105860;1258;73436;-84
2023/11/06 09:06:47;;;;;;;;;;;;;;;13.53;86.18;98999.81;105709;1260;124855;-84
2023/11/06 09:09:15;;;;;;;;;;;;;;;13.55;86.06;99008.95;105673;1260;72679;-84
2023/11/06 09:11:41;;;;;;;;;;;;;;;13.58;85.95;99016.64;106274;1260;125266;-84
2023/11/06 09:14:08;;;;;;;;;;;;;;;13.55;85.60;99021.98;106431;1262;61307;-84
2023/11/06 09:16:35;;;;;;;;;;;;;;;13.53;85.42;99028.54;106388;1257;125035;-84
2023/11/06 09:19:02;;;;;;;;;;;;;;;13.50;85.22;99027.53;106379;1259;65175;-84
2023/11/06 09:21:29;;;;;;;;;;;;;;;13.50;85.33;99030.16;106394;1261;190145;-84
2023/11/06 09:23:55;;;;;;;;;;;;;;;13.53;85.34;99030.48;106344;1258;125085;-84
2023/11/06 09:26:22;;;;;;;;;;;;;;;13.52;84.92;99032.60;106440;1256;61271;-84
2023/11/06 09:28:49;;;;;;;;;;;;;;;13.53;84.97;99036.64;106442;1257;125136;-85
2023/11/06 09:31:20;;;;;;;;;;;;;;;13.56;84.97;99039.06;106457;1257;65147;-84
2023/11/06 09:33:47;;;;;;;;;;;;;;;13.55;84.43;99046.13;106491;1256;71049;-84
2023/11/06 09:36:14;;;;;;;;;;;;;;;13.53;84.18;99051.98;106272;1257;124784;-84
2023/11/06 09:38:40;;;;;;;;;;;;;;;13.51;83.97;99062.23;106366;1257;61255;-84
2023/11/06 09:41:07;;;;;;;;;;;;;;;13.52;83.92;99065.73;106349;1257;125478;-84
2023/11/06 09:43:34;;;;;;;;;;;;;;;13.49;83.69;99072.99;106410;1256;66284;-84
2023/11/06 09:46:01;;;;;;;;;;;;;;;13.45;83.63;99079.57;106222;1262;72736;-84
2023/11/06 09:48:31;;;;;;;;;;;;;;;13.40;83.35;99079.29;106195;1257;125171;-84
2023/11/06 09:50:57;;;;;;;;;;;;;;;13.33;83.15;99087.48;106267;1258;61417;-83
2023/11/06 09:53:24;;;;;;;;;;;;;;;13.23;83.12;99088.09;105830;1257;124800;-84
2023/11/06 09:55:51;;;;;;;;;;;;;;;13.17;83.14;99088.17;106026;1256;66456;-83
2023/11/06 09:58:18;;;;;;;;;;;;;;;13.11;83.06;99093.89;105806;1258;72472;-85
2023/11/06 10:00:46;;;;;;;;;;;;;;;13.02;83.01;99099.27;105708;1262;124602;-85
2023/11/06 10:03:13;;;;;;;;;;;;;;;12.94;82.87;99103.59;106256;1260;59322;-85
2023/11/06 10:05:41;;;;;;;;;;;;;;;12.89;82.90;99108.92;106258;1257;125407;-84
2023/11/06 10:08:07;;;;;;;;;;;;;;;12.82;82.94;99113.58;105853;1258;65691;-84
2023/11/06 10:10:35;;;;;;;;;;;;;;;12.77;82.86;99121.38;106289;1256;126324;-83
2023/11/06 10:13:04;;;;;;;;;;;;;;;12.70;82.75;99131.83;106294;1257;61253;-78
2023/11/06 10:15:34;;;;;;;;;;;;;;;12.61;82.80;99135.78;105632;1258;61354;-77
2023/11/06 10:18:13;;;;;;;;;;;;;;;12.51;82.68;99137.28;105737;1259;124643;-84
2023/11/06 10:20:49;;;;;;;;;;;;;;;12.43;82.61;99141.73;105694;1257;65495;-84
2023/11/06 10:23:26;;;;;;;;;;;;;;;12.35;82.62;99152.89;106095;1258;124596;-85
2023/11/06 10:25:56;;;;;;;;;;;;;;;12.30;82.62;99160.48;106343;1258;61275;-84
2023/11/06 10:28:23;;;;;;;;;;;;;;;12.24;82.55;99164.93;106245;1258;61148;-84
2023/11/06 10:30:53;;;;;;;;;;;;;;;12.21;82.69;99166.36;106358;1260;76054;-83
2023/11/06 10:33:23;;;;;;;;;;;;;;;12.23;82.82;99165.29;106436;1256;64778;-76
2023/11/06 10:35:50;;;;;;;;;;;;;;;12.24;82.64;99165.46;105790;1258;126902;-76
2023/11/06 10:38:30;;;;;;;;;;;;;;;12.21;82.49;99170.92;105699;1257;61355;-77
2023/11/06 10:40:57;;;;;;;;;;;;;;;12.19;82.60;99173.41;105590;1258;125349;-77
2023/11/06 10:43:23;;;;;;;;;;;;;;;12.19;82.53;99178.68;105810;1257;75388;-77
2023/11/06 10:45:51;;;;;;;;;;;;;;;12.18;82.63;99182.05;105878;1256;65091;-76
2023/11/06 10:48:18;;;;;;;;;;;;;;;12.20;82.69;99192.05;105493;1259;125829;-77
2023/11/06 10:50:45;;;;;;;;;;;;;;;12.15;82.47;99199.80;105647;1260;61454;-77
2023/11/06 10:53:11;;;;;;;;;;;;;;;12.10;82.48;99204.42;105902;1257;125496;-84
2023/11/06 10:55:38;;;;;;;;;;;;;;;12.06;82.48;99209.36;106383;1258;73494;-83
2023/11/06 10:58:05;;;;;;;;;;;;;;;12.01;82.38;99211.68;105930;1256;65129;-84
2023/11/06 11:00:31;;;;;;;;;;;;;;;11.98;82.41;99220.66;106324;1257;125102;-83
2023/11/06 11:03:01;;;;;;;;;;;;;;;11.95;82.60;99223.84;106414;1257;61945;-84
2023/11/06 11:05:28;;;;;;;;;;;;;;;11.96;82.67;99228.75;106290;1257;125381;-84
2023/11/06 11:07:56;;;;;;;;;;;;;;;12.04;82.86;99229.07;106453;1261;74542;-84
2023/11/06 11:10:26;;;;;;;;;;;;;;;12.16;83.23;99233.21;106490;1259;66556;-83
2023/11/06 11:12:57;;;;;;;;;;;;;;;12.30;83.05;99239.13;106507;1261;71711;-84
2023/11/06 11:15:27;;;;;;;;;;;;;;;12.40;82.91;99237.80;106502;1257;62069;-85
2023/11/06 11:17:54;;;;;;;;;;;;;;;12.50;82.79;99241.27;106313;1258;123991;-84
2023/11/06 11:20:21;;;;;;;;;;;;;;;12.62;82.78;99244.17;106249;1257;74208;-85
2023/11/06 11:23:06;;;;;;;;;;;;;;;12.75;82.66;99246.02;106494;1260;125295;-84
2023/11/06 11:25:51;;;;;;;;;;;;;;;12.89;82.67;99242.72;106488;1260;72777;-86
2023/11/06 11:28:18;;;;;;;;;;;;;;;13.09;82.65;99242.02;106371;1257;62224;-85
2023/11/06 11:30:45;;;;;;;;;;;;;;;13.25;82.42;99243.45;106400;1257;123629;-85
2023/11/06 11:33:12;;;;;;;;;;;;;;;13.40;82.24;99252.66;106445;1257;75394;-84
2023/11/06 11:35:38;;;;;;;;;;;;;;;13.57;81.99;99252.30;106336;1261;124944;-84
2023/11/06 11:38:05;;;;;;;;;;;;;;;13.76;81.83;99252.43;106433;1258;70412;-84
2023/11/06 11:40:41;;;;;;;;;;;;;;;13.95;81.56;99259.95;105996;1257;125213;-86
2023/11/06 11:43:31;;;;;;;;;;;;;;;14.18;81.50;99262.30;106462;1258;62525;-83
2023/11/06 11:45:58;;;;;;;;;;;;;;;14.43;81.25;99269.71;106205;1261;74201;-85
2023/11/06 11:48:44;;;;;;;;;;;;;;;14.58;80.77;99270.05;106349;1258;124512;-77
2023/11/06 11:51:11;;;;;;;;;;;;;;;14.69;80.30;99270.06;105720;1257;71282;-77
2023/11/06 11:53:38;;;;;;;;;;;;;;;14.74;79.89;99274.94;105678;1256;124241;-77
2023/11/06 11:56:18;;;;;;;;;;;;;;;14.74;79.48;99279.52;105678;1261;62239;-77
2023/11/06 11:58:45;;;;;;;;;;;;;;;14.70;79.41;99290.02;105571;1256;125116;-78
2023/11/06 12:01:11;;;;;;;;;;;;;;;14.68;79.14;99294.80;106309;1257;66045;-77
2023/11/06 12:03:38;;;;;;;;;;;;;;;14.51;78.47;99298.21;105608;1257;72773;-77
2023/11/06 12:06:05;;;;;;;;;;;;;;;14.29;78.19;99307.15;105579;1260;125152;-78
2023/11/06 12:08:33;;;;;;;;;;;;;;;14.10;78.24;99307.73;106395;1257;62142;-78
2023/11/06 12:11:06;;;;;;;;;;;;;;;13.95;78.08;99317.80;105942;1263;125684;-78
2023/11/06 12:13:35;;;;;;;;;;;;;;;13.74;78.13;99322.27;105755;1256;65407;-77
2023/11/06 12:16:04;;;;;;;;;;;;;;;13.59;78.41;99323.84;107080;1259;71470;-78
2023/11/06 12:18:31;;;;;;;;;;;;;;;13.44;78.34;99329.80;105685;1260;124828;-78
2023/11/06 12:20:57;;;;;;;;;;;;;;;13.30;78.31;99334.48;105796;1260;62075;-78
2023/11/06 12:23:31;;;;;;;;;;;;;;;13.16;78.48;99342.17;105653;1257;124242;-78
2023/11/06 12:26:06;;;;;;;;;;;;;;;13.02;78.57;99351.61;105777;1257;65824;-77
2023/11/06 12:28:32;;;;;;;;;;;;;;;12.86;78.82;99354.35;105630;1256;125236;-78
2023/11/06 12:30:59;;;;;;;;;;;;;;;12.72;79.08;99360.61;105730;1257;62144;-77
2023/11/06 12:33:26;;;;;;;;;;;;;;;12.61;79.34;99367.20;105962;1256;62020;-77
2023/11/06 12:35:53;;;;;;;;;;;;;;;12.49;79.55;99366.90;105780;1258;124585;-77
2023/11/06 12:38:32;;;;;;;;;;;;;;;12.41;79.87;99371.70;105880;1260;66000;-77
2023/11/06 12:41:03;;;;;;;;;;;;;;;12.34;79.99;99373.30;105715;1257;126067;-77